sensor_id;sensor_type;location;lat;lon;timestamp;temperature;humidity
56761;DHT22;42633;44.494;11.356;2023-04-24T00:00:28;17.40;89.20
56761;DHT22;42633;44.494;11.356;2023-04-24T00:03:33;17.40;89.50
56761;DHT22;42633;44.494;11.356;2023-04-24T00:06:37;17.50;89.70
56761;DHT22;42633;44.494;11.356;2023-04-24T00:09:43;17.50;89.70
56761;DHT22;42633;44.494;11.356;2023-04-24T00:12:47;17.60;89.70
56761;DHT22;42633;44.494;11.356;2023-04-24T00:15:55;17.60;89.50
56761;DHT22;42633;44.494;11.356;2023-04-24T00:19:00;17.60;90.00
56761;DHT22;42633;44.494;11.356;2023-04-24T00:22:05;17.60;90.10
56761;DHT22;42633;44.494;11.356;2023-04-24T00:25:10;17.50;90.40
56761;DHT22;42633;44.494;11.356;2023-04-24T00:28:15;17.50;90.50
56761;DHT22;42633;44.494;11.356;2023-04-24T00:31:19;17.40;90.90
56761;DHT22;42633;44.494;11.356;2023-04-24T00:34:25;17.40;91.00
56761;DHT22;42633;44.494;11.356;2023-04-24T00:37:30;17.30;91.00
56761;DHT22;42633;44.494;11.356;2023-04-24T00:40:34;17.30;91.40
56761;DHT22;42633;44.494;11.356;2023-04-24T00:43:42;17.30;91.40
56761;DHT22;42633;44.494;11.356;2023-04-24T00:46:49;17.20;91.30
56761;DHT22;42633;44.494;11.356;2023-04-24T00:49:58;17.30;91.20
56761;DHT22;42633;44.494;11.356;2023-04-24T00:53:03;17.20;91.30
56761;DHT22;42633;44.494;11.356;2023-04-24T00:56:07;17.20;91.10
56761;DHT22;42633;44.494;11.356;2023-04-24T00:59:12;17.20;91.40
56761;DHT22;42633;44.494;11.356;2023-04-24T01:02:17;17.30;91.50
56761;DHT22;42633;44.494;11.356;2023-04-24T01:05:22;17.20;91.30
56761;DHT22;42633;44.494;11.356;2023-04-24T01:08:28;17.10;91.40
56761;DHT22;42633;44.494;11.356;2023-04-24T01:11:34;17.10;91.50
56761;DHT22;42633;44.494;11.356;2023-04-24T01:14:41;17.00;91.50
56761;DHT22;42633;44.494;11.356;2023-04-24T01:17:46;17.10;91.50
56761;DHT22;42633;44.494;11.356;2023-04-24T01:20:56;17.10;91.90
56761;DHT22;42633;44.494;11.356;2023-04-24T01:24:01;17.10;91.80
56761;DHT22;42633;44.494;11.356;2023-04-24T01:27:10;17.10;91.80
56761;DHT22;42633;44.494;11.356;2023-04-24T01:30:15;17.10;92.00
56761;DHT22;42633;44.494;11.356;2023-04-24T01:33:21;17.10;92.10
56761;DHT22;42633;44.494;11.356;2023-04-24T01:36:28;17.20;92.00
56761;DHT22;42633;44.494;11.356;2023-04-24T01:43:35;17.40;91.90
56761;DHT22;42633;44.494;11.356;2023-04-24T01:46:47;17.40;92.00
56761;DHT22;42633;44.494;11.356;2023-04-24T01:50:19;17.40;92.00
56761;DHT22;42633;44.494;11.356;2023-04-24T01:53:25;17.50;92.00
56761;DHT22;42633;44.494;11.356;2023-04-24T01:56:31;17.50;92.00
56761;DHT22;42633;44.494;11.356;2023-04-24T01:59:37;17.50;92.00
56761;DHT22;42633;44.494;11.356;2023-04-24T02:02:43;17.50;92.20
56761;DHT22;42633;44.494;11.356;2023-04-24T02:05:54;17.50;92.20
56761;DHT22;42633;44.494;11.356;2023-04-24T02:09:02;17.60;92.20
56761;DHT22;42633;44.494;11.356;2023-04-24T02:12:11;17.50;92.40
56761;DHT22;42633;44.494;11.356;2023-04-24T02:15:16;17.60;92.40
56761;DHT22;42633;44.494;11.356;2023-04-24T02:18:21;17.70;92.30
56761;DHT22;42633;44.494;11.356;2023-04-24T02:21:26;17.70;92.50
56761;DHT22;42633;44.494;11.356;2023-04-24T02:24:31;17.70;92.50
56761;DHT22;42633;44.494;11.356;2023-04-24T02:27:38;17.70;92.60
56761;DHT22;42633;44.494;11.356;2023-04-24T02:30:43;17.80;92.60
56761;DHT22;42633;44.494;11.356;2023-04-24T02:33:49;17.70;92.70
56761;DHT22;42633;44.494;11.356;2023-04-24T02:36:54;17.70;92.70
56761;DHT22;42633;44.494;11.356;2023-04-24T02:39:59;17.70;92.80
56761;DHT22;42633;44.494;11.356;2023-04-24T02:43:04;17.60;93.00
56761;DHT22;42633;44.494;11.356;2023-04-24T02:46:13;17.60;93.20
56761;DHT22;42633;44.494;11.356;2023-04-24T02:49:18;17.60;93.30
56761;DHT22;42633;44.494;11.356;2023-04-24T02:52:21;17.70;94.30
56761;DHT22;42633;44.494;11.356;2023-04-24T02:55:31;17.60;94.90
56761;DHT22;42633;44.494;11.356;2023-04-24T02:58:41;17.60;95.50
56761;DHT22;42633;44.494;11.356;2023-04-24T03:01:53;17.50;95.80
56761;DHT22;42633;44.494;11.356;2023-04-24T03:04:57;17.50;95.80
56761;DHT22;42633;44.494;11.356;2023-04-24T03:08:02;17.40;96.20
56761;DHT22;42633;44.494;11.356;2023-04-24T03:11:07;17.40;96.70
56761;DHT22;42633;44.494;11.356;2023-04-24T03:14:13;17.40;96.80
56761;DHT22;42633;44.494;11.356;2023-04-24T03:17:23;17.30;97.30
56761;DHT22;42633;44.494;11.356;2023-04-24T03:20:28;17.30;97.50
56761;DHT22;42633;44.494;11.356;2023-04-24T03:23:35;17.40;97.60
56761;DHT22;42633;44.494;11.356;2023-04-24T03:26:40;17.30;98.10
56761;DHT22;42633;44.494;11.356;2023-04-24T03:30:03;17.30;98.50
56761;DHT22;42633;44.494;11.356;2023-04-24T03:33:24;17.20;99.10
56761;DHT22;42633;44.494;11.356;2023-04-24T03:36:39;17.20;99.80
56761;DHT22;42633;44.494;11.356;2023-04-24T03:39:47;17.10;99.90
56761;DHT22;42633;44.494;11.356;2023-04-24T03:42:54;17.00;99.90
56761;DHT22;42633;44.494;11.356;2023-04-24T03:46:00;17.00;99.90
56761;DHT22;42633;44.494;11.356;2023-04-24T03:49:05;17.00;99.90
56761;DHT22;42633;44.494;11.356;2023-04-24T03:52:14;17.00;99.90
56761;DHT22;42633;44.494;11.356;2023-04-24T03:55:20;16.90;99.90
56761;DHT22;42633;44.494;11.356;2023-04-24T03:58:27;17.00;99.90
56761;DHT22;42633;44.494;11.356;2023-04-24T04:01:33;17.00;99.90
56761;DHT22;42633;44.494;11.356;2023-04-24T04:04:46;16.90;99.90
56761;DHT22;42633;44.494;11.356;2023-04-24T04:07:52;16.90;99.90
56761;DHT22;42633;44.494;11.356;2023-04-24T04:11:01;16.90;99.90
56761;DHT22;42633;44.494;11.356;2023-04-24T04:14:06;16.90;99.90
56761;DHT22;42633;44.494;11.356;2023-04-24T04:17:12;17.10;99.90
56761;DHT22;42633;44.494;11.356;2023-04-24T04:20:18;17.00;99.90
56761;DHT22;42633;44.494;11.356;2023-04-24T04:23:23;17.10;99.90
56761;DHT22;42633;44.494;11.356;2023-04-24T04:26:39;17.00;99.90
56761;DHT22;42633;44.494;11.356;2023-04-24T04:29:47;16.90;99.90
56761;DHT22;42633;44.494;11.356;2023-04-24T04:32:59;16.80;99.90
56761;DHT22;42633;44.494;11.356;2023-04-24T04:36:05;16.70;99.90
56761;DHT22;42633;44.494;11.356;2023-04-24T04:39:11;16.60;99.90
56761;DHT22;42633;44.494;11.356;2023-04-24T04:42:29;16.50;99.90
56761;DHT22;42633;44.494;11.356;2023-04-24T04:45:34;16.50;99.90
56761;DHT22;42633;44.494;11.356;2023-04-24T04:48:59;16.30;99.90
56761;DHT22;42633;44.494;11.356;2023-04-24T04:52:15;16.20;99.90
56761;DHT22;42633;44.494;11.356;2023-04-24T04:55:22;16.10;99.90
56761;DHT22;42633;44.494;11.356;2023-04-24T04:58:47;16.10;99.90
56761;DHT22;42633;44.494;11.356;2023-04-24T05:01:54;16.00;99.90
56761;DHT22;42633;44.494;11.356;2023-04-24T05:05:00;16.00;99.90
56761;DHT22;42633;44.494;11.356;2023-04-24T05:08:05;16.00;99.90
56761;DHT22;42633;44.494;11.356;2023-04-24T05:15:16;16.00;99.90
56761;DHT22;42633;44.494;11.356;2023-04-24T05:18:26;16.10;99.90
56761;DHT22;42633;44.494;11.356;2023-04-24T05:21:32;16.00;99.90
56761;DHT22;42633;44.494;11.356;2023-04-24T05:24:39;16.00;99.90
56761;DHT22;42633;44.494;11.356;2023-04-24T05:27:52;15.90;99.90
56761;DHT22;42633;44.494;11.356;2023-04-24T05:30:58;15.90;99.90
56761;DHT22;42633;44.494;11.356;2023-04-24T05:34:07;15.80;99.90
56761;DHT22;42633;44.494;11.356;2023-04-24T05:37:14;15.80;99.90
56761;DHT22;42633;44.494;11.356;2023-04-24T05:40:21;15.90;99.90
56761;DHT22;42633;44.494;11.356;2023-04-24T05:43:26;15.90;99.90
56761;DHT22;42633;44.494;11.356;2023-04-24T05:46:35;15.90;99.90
56761;DHT22;42633;44.494;11.356;2023-04-24T05:49:42;15.90;99.90
56761;DHT22;42633;44.494;11.356;2023-04-24T05:52:47;15.90;99.90
56761;DHT22;42633;44.494;11.356;2023-04-24T05:56:07;15.90;99.90
56761;DHT22;42633;44.494;11.356;2023-04-24T05:59:13;15.80;99.90
56761;DHT22;42633;44.494;11.356;2023-04-24T06:02:21;15.80;99.90
56761;DHT22;42633;44.494;11.356;2023-04-24T06:05:27;15.80;99.90
56761;DHT22;42633;44.494;11.356;2023-04-24T06:08:32;15.80;99.90
56761;DHT22;42633;44.494;11.356;2023-04-24T06:11:37;15.90;99.90
56761;DHT22;42633;44.494;11.356;2023-04-24T06:14:43;16.00;99.90
56761;DHT22;42633;44.494;11.356;2023-04-24T06:17:59;16.10;99.90
56761;DHT22;42633;44.494;11.356;2023-04-24T06:21:05;16.20;99.90
56761;DHT22;42633;44.494;11.356;2023-04-24T06:24:14;16.20;99.90
56761;DHT22;42633;44.494;11.356;2023-04-24T06:27:26;16.30;99.90
56761;DHT22;42633;44.494;11.356;2023-04-24T06:30:31;16.30;99.90
56761;DHT22;42633;44.494;11.356;2023-04-24T06:33:38;16.40;99.90
56761;DHT22;42633;44.494;11.356;2023-04-24T06:36:47;16.50;99.90
56761;DHT22;42633;44.494;11.356;2023-04-24T06:39:51;16.60;99.90
56761;DHT22;42633;44.494;11.356;2023-04-24T06:42:56;16.80;99.90
56761;DHT22;42633;44.494;11.356;2023-04-24T06:46:31;16.80;99.90
56761;DHT22;42633;44.494;11.356;2023-04-24T06:49:46;16.90;99.90
56761;DHT22;42633;44.494;11.356;2023-04-24T06:56:08;17.00;99.90
56761;DHT22;42633;44.494;11.356;2023-04-24T07:00:01;17.10;99.90
56761;DHT22;42633;44.494;11.356;2023-04-24T07:04:04;17.30;99.90
56761;DHT22;42633;44.494;11.356;2023-04-24T07:07:28;17.80;99.90
56761;DHT22;42633;44.494;11.356;2023-04-24T07:11:09;18.00;99.90
56761;DHT22;42633;44.494;11.356;2023-04-24T07:15:08;18.40;99.90
56761;DHT22;42633;44.494;11.356;2023-04-24T07:18:53;18.70;99.90
56761;DHT22;42633;44.494;11.356;2023-04-24T07:22:25;19.10;99.90
56761;DHT22;42633;44.494;11.356;2023-04-24T07:26:02;19.20;99.90
56761;DHT22;42633;44.494;11.356;2023-04-24T07:29:26;18.90;99.90
56761;DHT22;42633;44.494;11.356;2023-04-24T07:32:38;18.60;99.90
56761;DHT22;42633;44.494;11.356;2023-04-24T07:35:56;18.30;99.90
56761;DHT22;42633;44.494;11.356;2023-04-24T07:40:00;18.10;99.90
56761;DHT22;42633;44.494;11.356;2023-04-24T07:43:06;18.00;99.90
56761;DHT22;42633;44.494;11.356;2023-04-24T07:46:12;18.00;99.90
56761;DHT22;42633;44.494;11.356;2023-04-24T07:49:19;18.00;99.90
56761;DHT22;42633;44.494;11.356;2023-04-24T07:52:24;17.90;99.90
56761;DHT22;42633;44.494;11.356;2023-04-24T07:55:30;18.00;99.90
56761;DHT22;42633;44.494;11.356;2023-04-24T07:58:34;17.90;99.90
56761;DHT22;42633;44.494;11.356;2023-04-24T08:02:17;18.00;99.90
56761;DHT22;42633;44.494;11.356;2023-04-24T08:05:22;17.90;99.90
56761;DHT22;42633;44.494;11.356;2023-04-24T08:08:38;18.20;99.90
56761;DHT22;42633;44.494;11.356;2023-04-24T08:11:51;18.50;99.90
56761;DHT22;42633;44.494;11.356;2023-04-24T08:14:59;18.90;99.90
56761;DHT22;42633;44.494;11.356;2023-04-24T08:18:14;19.20;99.90
56761;DHT22;42633;44.494;11.356;2023-04-24T08:22:54;19.50;99.10
56761;DHT22;42633;44.494;11.356;2023-04-24T08:26:05;19.50;98.80
56761;DHT22;42633;44.494;11.356;2023-04-24T08:34:42;19.40;98.60
56761;DHT22;42633;44.494;11.356;2023-04-24T08:38:12;19.70;98.50
56761;DHT22;42633;44.494;11.356;2023-04-24T08:41:46;19.80;98.40
56761;DHT22;42633;44.494;11.356;2023-04-24T08:45:45;19.70;98.40
56761;DHT22;42633;44.494;11.356;2023-04-24T08:53:54;20.50;96.50
56761;DHT22;42633;44.494;11.356;2023-04-24T08:57:38;20.80;96.80
56761;DHT22;42633;44.494;11.356;2023-04-24T09:05:36;21.30;97.10
56761;DHT22;42633;44.494;11.356;2023-04-24T09:08:52;20.90;97.20
56761;DHT22;42633;44.494;11.356;2023-04-24T09:12:01;21.10;96.60
56761;DHT22;42633;44.494;11.356;2023-04-24T09:15:12;21.10;96.90
56761;DHT22;42633;44.494;11.356;2023-04-24T09:18:23;21.00;96.80
56761;DHT22;42633;44.494;11.356;2023-04-24T09:21:45;21.20;96.20
56761;DHT22;42633;44.494;11.356;2023-04-24T09:25:05;20.20;95.70
56761;DHT22;42633;44.494;11.356;2023-04-24T09:28:18;20.00;97.60
56761;DHT22;42633;44.494;11.356;2023-04-24T09:32:21;19.20;99.90
56761;DHT22;42633;44.494;11.356;2023-04-24T09:35:58;18.80;99.90
56761;DHT22;42633;44.494;11.356;2023-04-24T09:39:05;18.90;99.90
56761;DHT22;42633;44.494;11.356;2023-04-24T09:42:21;18.80;99.90
56761;DHT22;42633;44.494;11.356;2023-04-24T09:46:18;18.50;99.90
56761;DHT22;42633;44.494;11.356;2023-04-24T09:49:30;18.10;99.90
56761;DHT22;42633;44.494;11.356;2023-04-24T09:53:01;18.40;99.90
56761;DHT22;42633;44.494;11.356;2023-04-24T09:56:09;18.80;99.90
56761;DHT22;42633;44.494;11.356;2023-04-24T10:00:23;19.60;99.90
56761;DHT22;42633;44.494;11.356;2023-04-24T10:05:09;20.50;98.60
56761;DHT22;42633;44.494;11.356;2023-04-24T10:13:17;21.20;95.40
56761;DHT22;42633;44.494;11.356;2023-04-24T10:17:11;21.50;95.30
56761;DHT22;42633;44.494;11.356;2023-04-24T10:25:34;20.70;95.30
56761;DHT22;42633;44.494;11.356;2023-04-24T10:29:08;20.80;95.40
56761;DHT22;42633;44.494;11.356;2023-04-24T10:37:05;21.70;94.00
56761;DHT22;42633;44.494;11.356;2023-04-24T10:40:26;22.20;93.10
56761;DHT22;42633;44.494;11.356;2023-04-24T10:44:07;22.00;93.30
56761;DHT22;42633;44.494;11.356;2023-04-24T10:51:51;22.60;91.90
56761;DHT22;42633;44.494;11.356;2023-04-24T10:55:03;21.80;93.20
56761;DHT22;42633;44.494;11.356;2023-04-24T10:58:35;21.50;93.60
56761;DHT22;42633;44.494;11.356;2023-04-24T11:01:58;21.90;93.50
56761;DHT22;42633;44.494;11.356;2023-04-24T11:06:09;22.20;93.20
56761;DHT22;42633;44.494;11.356;2023-04-24T11:09:29;22.50;92.50
56761;DHT22;42633;44.494;11.356;2023-04-24T11:12:54;22.70;92.20
56761;DHT22;42633;44.494;11.356;2023-04-24T11:16:31;22.60;92.50
56761;DHT22;42633;44.494;11.356;2023-04-24T11:20:03;22.50;92.00
56761;DHT22;42633;44.494;11.356;2023-04-24T11:23:14;22.30;92.10
56761;DHT22;42633;44.494;11.356;2023-04-24T11:26:25;22.50;92.00
56761;DHT22;42633;44.494;11.356;2023-04-24T11:29:58;22.60;91.60
56761;DHT22;42633;44.494;11.356;2023-04-24T11:33:10;22.30;91.70
56761;DHT22;42633;44.494;11.356;2023-04-24T11:36:17;22.10;91.90
56761;DHT22;42633;44.494;11.356;2023-04-24T11:39:38;22.00;92.60
56761;DHT22;42633;44.494;11.356;2023-04-24T11:42:50;22.30;92.20
56761;DHT22;42633;44.494;11.356;2023-04-24T11:46:12;22.80;92.00
56761;DHT22;42633;44.494;11.356;2023-04-24T11:53:53;23.00;90.60
56761;DHT22;42633;44.494;11.356;2023-04-24T11:57:13;22.80;91.20
56761;DHT22;42633;44.494;11.356;2023-04-24T12:00:37;22.80;91.50
56761;DHT22;42633;44.494;11.356;2023-04-24T12:04:17;23.20;90.70
56761;DHT22;42633;44.494;11.356;2023-04-24T12:07:42;23.40;90.30
56761;DHT22;42633;44.494;11.356;2023-04-24T12:11:00;23.50;88.80
56761;DHT22;42633;44.494;11.356;2023-04-24T12:14:21;23.00;88.90
56761;DHT22;42633;44.494;11.356;2023-04-24T12:17:41;22.80;90.00
56761;DHT22;42633;44.494;11.356;2023-04-24T12:21:22;23.10;90.10
56761;DHT22;42633;44.494;11.356;2023-04-24T12:24:33;23.50;90.10
56761;DHT22;42633;44.494;11.356;2023-04-24T12:27:51;23.10;89.60
56761;DHT22;42633;44.494;11.356;2023-04-24T12:31:06;22.70;89.30
56761;DHT22;42633;44.494;11.356;2023-04-24T12:34:22;22.90;89.20
56761;DHT22;42633;44.494;11.356;2023-04-24T12:37:44;23.20;89.20
56761;DHT22;42633;44.494;11.356;2023-04-24T12:41:09;23.20;88.40
56761;DHT22;42633;44.494;11.356;2023-04-24T12:44:20;23.40;88.70
56761;DHT22;42633;44.494;11.356;2023-04-24T12:48:04;23.40;88.10
56761;DHT22;42633;44.494;11.356;2023-04-24T12:51:13;23.20;85.70
56761;DHT22;42633;44.494;11.356;2023-04-24T12:54:32;23.30;87.00
56761;DHT22;42633;44.494;11.356;2023-04-24T12:57:55;22.90;88.90
56761;DHT22;42633;44.494;11.356;2023-04-24T13:01:10;23.00;88.00
56761;DHT22;42633;44.494;11.356;2023-04-24T13:04:22;23.10;87.70
56761;DHT22;42633;44.494;11.356;2023-04-24T13:11:40;23.30;84.00
56761;DHT22;42633;44.494;11.356;2023-04-24T13:14:54;23.60;84.30
56761;DHT22;42633;44.494;11.356;2023-04-24T13:18:12;23.80;83.70
56761;DHT22;42633;44.494;11.356;2023-04-24T13:21:29;24.10;82.90
56761;DHT22;42633;44.494;11.356;2023-04-24T13:25:08;24.20;82.40
56761;DHT22;42633;44.494;11.356;2023-04-24T13:28:21;24.10;81.40
56761;DHT22;42633;44.494;11.356;2023-04-24T13:31:29;23.50;81.50
56761;DHT22;42633;44.494;11.356;2023-04-24T13:35:11;23.70;81.90
56761;DHT22;42633;44.494;11.356;2023-04-24T13:38:41;24.40;81.50
56761;DHT22;42633;44.494;11.356;2023-04-24T13:41:48;24.70;78.80
56761;DHT22;42633;44.494;11.356;2023-04-24T13:45:02;24.90;77.80
56761;DHT22;42633;44.494;11.356;2023-04-24T13:48:26;25.10;77.30
56761;DHT22;42633;44.494;11.356;2023-04-24T13:52:29;25.10;79.10
56761;DHT22;42633;44.494;11.356;2023-04-24T13:56:06;24.10;79.60
56761;DHT22;42633;44.494;11.356;2023-04-24T14:00:01;24.20;80.20
56761;DHT22;42633;44.494;11.356;2023-04-24T14:03:44;24.70;78.00
56761;DHT22;42633;44.494;11.356;2023-04-24T14:07:04;24.90;78.00
56761;DHT22;42633;44.494;11.356;2023-04-24T14:10:14;25.30;75.10
56761;DHT22;42633;44.494;11.356;2023-04-24T14:13:30;25.00;75.00
56761;DHT22;42633;44.494;11.356;2023-04-24T14:17:21;24.70;75.90
56761;DHT22;42633;44.494;11.356;2023-04-24T14:21:19;24.30;76.80
56761;DHT22;42633;44.494;11.356;2023-04-24T14:24:36;24.70;76.40
56761;DHT22;42633;44.494;11.356;2023-04-24T14:27:46;25.10;75.10
56761;DHT22;42633;44.494;11.356;2023-04-24T14:31:21;25.30;74.70
56761;DHT22;42633;44.494;11.356;2023-04-24T14:34:59;24.90;74.80
56761;DHT22;42633;44.494;11.356;2023-04-24T14:38:07;24.80;74.80
56761;DHT22;42633;44.494;11.356;2023-04-24T14:41:14;24.50;75.30
56761;DHT22;42633;44.494;11.356;2023-04-24T14:44:30;24.60;74.80
56761;DHT22;42633;44.494;11.356;2023-04-24T14:48:00;24.60;75.00
56761;DHT22;42633;44.494;11.356;2023-04-24T14:51:11;24.70;73.70
56761;DHT22;42633;44.494;11.356;2023-04-24T14:54:44;24.50;73.80
56761;DHT22;42633;44.494;11.356;2023-04-24T14:58:05;24.60;73.70
56761;DHT22;42633;44.494;11.356;2023-04-24T15:01:15;24.60;74.20
56761;DHT22;42633;44.494;11.356;2023-04-24T15:04:32;24.80;74.30
56761;DHT22;42633;44.494;11.356;2023-04-24T15:08:16;25.10;73.80
56761;DHT22;42633;44.494;11.356;2023-04-24T15:11:26;25.30;73.40
56761;DHT22;42633;44.494;11.356;2023-04-24T15:14:31;25.40;72.70
56761;DHT22;42633;44.494;11.356;2023-04-24T15:17:49;24.80;76.30
56761;DHT22;42633;44.494;11.356;2023-04-24T15:21:17;24.20;82.70
56761;DHT22;42633;44.494;11.356;2023-04-24T15:24:34;23.80;84.80
56761;DHT22;42633;44.494;11.356;2023-04-24T15:27:49;23.40;86.30
56761;DHT22;42633;44.494;11.356;2023-04-24T15:31:16;23.10;87.60
56761;DHT22;42633;44.494;11.356;2023-04-24T15:35:11;23.00;88.00
56761;DHT22;42633;44.494;11.356;2023-04-24T15:38:53;23.00;87.90
56761;DHT22;42633;44.494;11.356;2023-04-24T15:42:21;23.40;87.70
56761;DHT22;42633;44.494;11.356;2023-04-24T15:46:08;23.90;86.40
56761;DHT22;42633;44.494;11.356;2023-04-24T15:49:37;24.00;86.10
56761;DHT22;42633;44.494;11.356;2023-04-24T15:52:57;23.60;87.10
56761;DHT22;42633;44.494;11.356;2023-04-24T15:56:44;23.30;79.20
56761;DHT22;42633;44.494;11.356;2023-04-24T15:59:57;23.10;76.50
56761;DHT22;42633;44.494;11.356;2023-04-24T16:03:22;22.90;86.80
56761;DHT22;42633;44.494;11.356;2023-04-24T16:06:40;22.60;88.60
56761;DHT22;42633;44.494;11.356;2023-04-24T16:09:52;22.50;89.30
56761;DHT22;42633;44.494;11.356;2023-04-24T16:12:59;22.50;89.20
56761;DHT22;42633;44.494;11.356;2023-04-24T16:16:13;22.10;88.80
56761;DHT22;42633;44.494;11.356;2023-04-24T16:23:50;22.40;86.70
56761;DHT22;42633;44.494;11.356;2023-04-24T16:26:58;22.60;86.50
56761;DHT22;42633;44.494;11.356;2023-04-24T16:30:06;22.10;87.50
56761;DHT22;42633;44.494;11.356;2023-04-24T16:33:29;21.80;87.30
56761;DHT22;42633;44.494;11.356;2023-04-24T16:36:38;21.60;86.00
56761;DHT22;42633;44.494;11.356;2023-04-24T16:39:48;21.50;85.50
56761;DHT22;42633;44.494;11.356;2023-04-24T16:42:55;21.60;81.20
56761;DHT22;42633;44.494;11.356;2023-04-24T16:53:35;25.80;71.80
56761;DHT22;42633;44.494;11.356;2023-04-24T16:56:40;26.40;70.20
56761;DHT22;42633;44.494;11.356;2023-04-24T17:00:15;26.40;67.60
56761;DHT22;42633;44.494;11.356;2023-04-24T17:03:40;26.40;67.30
56761;DHT22;42633;44.494;11.356;2023-04-24T17:07:05;25.90;70.40
56761;DHT22;42633;44.494;11.356;2023-04-24T17:10:26;24.70;80.10
56761;DHT22;42633;44.494;11.356;2023-04-24T17:14:02;24.50;81.20
56761;DHT22;42633;44.494;11.356;2023-04-24T17:17:23;23.90;82.80
56761;DHT22;42633;44.494;11.356;2023-04-24T17:20:51;23.00;85.40
56761;DHT22;42633;44.494;11.356;2023-04-24T17:24:05;21.60;88.80
56761;DHT22;42633;44.494;11.356;2023-04-24T17:27:43;20.80;90.80
56761;DHT22;42633;44.494;11.356;2023-04-24T17:31:00;20.40;85.70
56761;DHT22;42633;44.494;11.356;2023-04-24T17:34:08;20.30;75.00
56761;DHT22;42633;44.494;11.356;2023-04-24T17:37:14;20.40;72.40
56761;DHT22;42633;44.494;11.356;2023-04-24T17:40:30;20.40;72.00
56761;DHT22;42633;44.494;11.356;2023-04-24T17:43:41;20.20;72.10
56761;DHT22;42633;44.494;11.356;2023-04-24T17:46:49;20.10;72.40
56761;DHT22;42633;44.494;11.356;2023-04-24T17:50:12;20.00;71.80
56761;DHT22;42633;44.494;11.356;2023-04-24T17:53:22;19.90;72.30
56761;DHT22;42633;44.494;11.356;2023-04-24T17:56:34;19.80;72.50
56761;DHT22;42633;44.494;11.356;2023-04-24T17:59:39;19.70;72.60
56761;DHT22;42633;44.494;11.356;2023-04-24T18:02:58;19.60;72.60
56761;DHT22;42633;44.494;11.356;2023-04-24T18:06:19;19.30;73.40
56761;DHT22;42633;44.494;11.356;2023-04-24T18:09:31;19.20;73.70
56761;DHT22;42633;44.494;11.356;2023-04-24T18:12:51;19.20;73.60
56761;DHT22;42633;44.494;11.356;2023-04-24T18:16:05;19.10;74.50
56761;DHT22;42633;44.494;11.356;2023-04-24T18:19:11;18.90;90.30
56761;DHT22;42633;44.494;11.356;2023-04-24T18:22:19;18.90;92.10
56761;DHT22;42633;44.494;11.356;2023-04-24T18:25:33;18.80;92.90
56761;DHT22;42633;44.494;11.356;2023-04-24T18:28:45;18.50;93.90
56761;DHT22;42633;44.494;11.356;2023-04-24T18:31:52;18.30;94.80
56761;DHT22;42633;44.494;11.356;2023-04-24T18:35:23;18.00;95.10
56761;DHT22;42633;44.494;11.356;2023-04-24T18:38:31;17.70;96.20
56761;DHT22;42633;44.494;11.356;2023-04-24T18:42:01;17.60;97.00
56761;DHT22;42633;44.494;11.356;2023-04-24T18:45:07;17.60;98.60
56761;DHT22;42633;44.494;11.356;2023-04-24T18:48:15;17.20;99.90
56761;DHT22;42633;44.494;11.356;2023-04-24T18:51:28;16.90;99.90
56761;DHT22;42633;44.494;11.356;2023-04-24T18:54:36;16.80;99.90
56761;DHT22;42633;44.494;11.356;2023-04-24T18:57:49;16.70;99.90
56761;DHT22;42633;44.494;11.356;2023-04-24T19:00:58;16.60;99.90
56761;DHT22;42633;44.494;11.356;2023-04-24T19:04:12;16.50;99.90
56761;DHT22;42633;44.494;11.356;2023-04-24T19:07:17;16.40;99.90
56761;DHT22;42633;44.494;11.356;2023-04-24T19:10:26;16.30;99.90
56761;DHT22;42633;44.494;11.356;2023-04-24T19:13:32;16.20;99.90
56761;DHT22;42633;44.494;11.356;2023-04-24T19:16:42;16.20;99.90
56761;DHT22;42633;44.494;11.356;2023-04-24T19:19:52;16.30;99.90
56761;DHT22;42633;44.494;11.356;2023-04-24T19:22:57;16.10;99.90
56761;DHT22;42633;44.494;11.356;2023-04-24T19:26:10;16.10;99.90
56761;DHT22;42633;44.494;11.356;2023-04-24T19:29:18;16.10;99.90
56761;DHT22;42633;44.494;11.356;2023-04-24T19:32:26;16.00;99.90
56761;DHT22;42633;44.494;11.356;2023-04-24T19:35:43;15.80;99.90
56761;DHT22;42633;44.494;11.356;2023-04-24T19:38:52;15.60;99.90
56761;DHT22;42633;44.494;11.356;2023-04-24T19:42:03;15.60;99.90
56761;DHT22;42633;44.494;11.356;2023-04-24T19:45:14;15.60;99.90
56761;DHT22;42633;44.494;11.356;2023-04-24T19:48:19;15.60;99.90
56761;DHT22;42633;44.494;11.356;2023-04-24T19:51:28;15.50;99.90
56761;DHT22;42633;44.494;11.356;2023-04-24T19:54:33;15.60;99.90
56761;DHT22;42633;44.494;11.356;2023-04-24T19:57:47;15.50;99.90
56761;DHT22;42633;44.494;11.356;2023-04-24T20:00:57;15.40;99.90
56761;DHT22;42633;44.494;11.356;2023-04-24T20:04:26;15.40;99.90
56761;DHT22;42633;44.494;11.356;2023-04-24T20:07:40;15.50;99.90
56761;DHT22;42633;44.494;11.356;2023-04-24T20:10:57;15.60;99.90
56761;DHT22;42633;44.494;11.356;2023-04-24T20:14:17;15.50;99.90
56761;DHT22;42633;44.494;11.356;2023-04-24T20:17:30;15.40;99.90
56761;DHT22;42633;44.494;11.356;2023-04-24T20:20:44;15.30;99.90
56761;DHT22;42633;44.494;11.356;2023-04-24T20:23:59;15.30;99.90
56761;DHT22;42633;44.494;11.356;2023-04-24T20:27:09;15.30;99.90
56761;DHT22;42633;44.494;11.356;2023-04-24T20:30:15;15.20;99.90
56761;DHT22;42633;44.494;11.356;2023-04-24T20:33:22;15.20;99.90
56761;DHT22;42633;44.494;11.356;2023-04-24T20:36:37;15.10;99.90
56761;DHT22;42633;44.494;11.356;2023-04-24T20:39:42;15.10;99.90
56761;DHT22;42633;44.494;11.356;2023-04-24T20:42:52;15.00;99.90
56761;DHT22;42633;44.494;11.356;2023-04-24T20:46:20;14.90;99.90
56761;DHT22;42633;44.494;11.356;2023-04-24T20:49:27;14.90;99.90
56761;DHT22;42633;44.494;11.356;2023-04-24T20:52:35;14.90;99.90
56761;DHT22;42633;44.494;11.356;2023-04-24T20:55:43;15.00;99.90
56761;DHT22;42633;44.494;11.356;2023-04-24T20:58:50;15.00;99.90
56761;DHT22;42633;44.494;11.356;2023-04-24T21:02:02;15.00;99.90
56761;DHT22;42633;44.494;11.356;2023-04-24T21:05:10;15.00;99.90
56761;DHT22;42633;44.494;11.356;2023-04-24T21:08:15;15.10;99.90
56761;DHT22;42633;44.494;11.356;2023-04-24T21:11:32;15.10;99.90
56761;DHT22;42633;44.494;11.356;2023-04-24T21:14:39;15.20;99.90
56761;DHT22;42633;44.494;11.356;2023-04-24T21:17:58;15.30;99.90
56761;DHT22;42633;44.494;11.356;2023-04-24T21:21:07;15.30;99.90
56761;DHT22;42633;44.494;11.356;2023-04-24T21:24:14;15.30;99.90